createdAt,value
2022-12-08T00:01:15.833Z,23.50
2022-12-08T00:03:43.375Z,23.10
2022-12-08T00:06:54.867Z,22.92
2022-12-08T00:09:32.074Z,22.98
2022-12-08T00:12:02.725Z,23.00
2022-12-08T00:14:32.949Z,23.48
2022-12-08T00:17:00.511Z,23.83
2022-12-08T00:19:28.064Z,23.77
2022-12-08T00:21:55.239Z,24.52
2022-12-08T00:24:23.700Z,25.33
2022-12-08T00:26:50.807Z,24.88
2022-12-08T00:29:18.587Z,24.27
2022-12-08T00:31:45.810Z,24.73
2022-12-08T00:34:14.540Z,25.45
2022-12-08T00:36:43.058Z,24.42
2022-12-08T00:39:12.158Z,24.25
2022-12-08T00:41:57.923Z,24.17
2022-12-08T00:44:25.146Z,23.15
2022-12-08T00:47:04.136Z,22.55
2022-12-08T00:49:31.142Z,22.42
2022-12-08T00:51:58.318Z,22.67
2022-12-08T00:54:28.287Z,22.98
2022-12-08T00:56:55.425Z,23.48
2022-12-08T00:59:22.574Z,22.50
2022-12-08T01:01:50.123Z,23.20
2022-12-08T01:04:18.652Z,22.75
2022-12-08T01:10:24.658Z,22.13
2022-12-08T01:12:51.734Z,21.55
2022-12-08T01:15:19.131Z,23.35
2022-12-08T01:17:46.264Z,22.35
2022-12-08T01:20:14.055Z,22.95
2022-12-08T01:22:42.131Z,24.20
2022-12-08T01:25:10.602Z,23.58
2022-12-08T01:27:40.165Z,22.00
2022-12-08T01:30:08.511Z,22.27
2022-12-08T01:32:36.740Z,22.15
2022-12-08T01:35:04.246Z,24.10
2022-12-08T01:40:29.282Z,23.45
2022-12-08T01:42:56.365Z,21.88
2022-12-08T01:45:27.259Z,22.70
2022-12-08T01:50:52.040Z,21.02
2022-12-08T01:54:15.796Z,21.75
2022-12-08T01:56:54.725Z,20.90
2022-12-08T01:59:23.630Z,21.80
2022-12-08T02:02:17.289Z,22.60
2022-12-08T02:04:45.987Z,22.17
2022-12-08T02:07:14.826Z,21.17
2022-12-08T02:09:42.835Z,20.10
2022-12-08T02:13:06.613Z,21.60
2022-12-08T02:15:59.648Z,35.92
2022-12-08T02:18:35.795Z,16.85
2022-12-08T02:21:17.971Z,19.98
2022-12-08T02:24:09.894Z,40.25
2022-12-08T02:30:00.149Z,19.97
2022-12-08T02:32:43.531Z,21.52
2022-12-08T02:35:13.598Z,22.00
2022-12-08T02:37:43.641Z,20.65
2022-12-08T02:40:21.392Z,20.08
2022-12-08T02:43:22.706Z,19.33
2022-12-08T02:45:55.537Z,18.50
2022-12-08T02:48:22.583Z,18.10
2022-12-08T02:50:49.645Z,16.67
2022-12-08T02:53:16.650Z,15.73
2022-12-08T02:58:56.526Z,16.95
2022-12-08T03:04:32.216Z,14.10
2022-12-08T03:07:45.921Z,17.13
2022-12-08T03:10:38.393Z,17.02
2022-12-08T03:13:17.701Z,17.60
2022-12-08T03:15:48.721Z,17.83
2022-12-08T03:18:19.528Z,17.30
2022-12-08T03:20:48.102Z,17.67
2022-12-08T03:23:17.868Z,17.60
2022-12-08T03:26:09.537Z,18.73
2022-12-08T03:28:37.570Z,12.52
2022-12-08T03:31:08.157Z,16.55
2022-12-08T03:34:50.954Z,17.15
2022-12-08T03:40:18.289Z,16.58
2022-12-08T03:42:45.538Z,16.73
2022-12-08T03:45:12.813Z,16.73
2022-12-08T03:47:39.970Z,16.33
2022-12-08T03:50:07.836Z,16.98
2022-12-08T03:52:37.332Z,16.80
2022-12-08T03:55:29.614Z,16.42
2022-12-08T03:58:24.722Z,17.33
2022-12-08T04:00:51.883Z,18.10
2022-12-08T04:03:19.106Z,18.00
2022-12-08T04:05:47.022Z,18.52
2022-12-08T04:08:14.235Z,19.73
2022-12-08T04:10:41.497Z,20.27
2022-12-08T04:13:08.663Z,20.05
2022-12-08T04:15:35.763Z,19.33
2022-12-08T04:18:02.871Z,19.10
2022-12-08T04:20:29.853Z,19.67
2022-12-08T04:22:56.828Z,18.85
2022-12-08T04:25:24.049Z,19.05
2022-12-08T04:27:51.314Z,18.20
2022-12-08T04:30:18.494Z,19.08
2022-12-08T04:32:47.569Z,18.13
2022-12-08T04:35:50.524Z,18.50
2022-12-08T04:38:18.108Z,19.17
2022-12-08T04:40:45.291Z,18.98
2022-12-08T04:43:12.413Z,19.27
2022-12-08T04:45:40.938Z,19.25
2022-12-08T04:48:08.534Z,20.00
2022-12-08T04:50:35.792Z,19.05
2022-12-08T04:53:03.050Z,18.30
2022-12-08T04:55:30.320Z,19.35
2022-12-08T04:57:57.467Z,19.35
2022-12-08T05:00:24.588Z,20.10
2022-12-08T05:02:51.713Z,18.92
2022-12-08T05:05:45.067Z,20.92
2022-12-08T05:08:12.411Z,20.35
2022-12-08T05:10:40.463Z,20.52
2022-12-08T05:13:07.540Z,18.55
2022-12-08T05:15:34.645Z,18.27
2022-12-08T05:18:01.671Z,18.50
2022-12-08T05:20:28.758Z,17.13
2022-12-08T05:22:55.922Z,16.15
2022-12-08T05:25:49.397Z,17.08
2022-12-08T05:28:40.100Z,16.33
2022-12-08T05:31:03.839Z,16.25
2022-12-08T05:33:31.181Z,16.85
2022-12-08T05:36:38.353Z,17.73
2022-12-08T05:39:05.552Z,16.80
2022-12-08T05:41:32.601Z,17.17
2022-12-08T05:44:10.389Z,16.83
2022-12-08T05:46:37.480Z,17.58
2022-12-08T05:49:04.806Z,18.13
2022-12-08T05:51:31.985Z,16.92
2022-12-08T05:53:59.217Z,17.13
2022-12-08T05:57:30.857Z,19.15
2022-12-08T05:59:59.665Z,17.92
2022-12-08T06:02:27.335Z,19.05
2022-12-08T06:04:54.495Z,18.35
2022-12-08T06:07:21.527Z,18.58
2022-12-08T06:09:48.750Z,19.02
2022-12-08T06:12:16.304Z,18.35
2022-12-08T06:14:43.557Z,16.23
2022-12-08T06:17:10.711Z,15.98
2022-12-08T06:19:37.892Z,17.35
2022-12-08T06:22:05.020Z,15.63
2022-12-08T06:24:32.365Z,16.85
2022-12-08T06:26:59.746Z,15.32
2022-12-08T06:29:26.880Z,18.88
2022-12-08T06:31:54.026Z,22.48
2022-12-08T06:34:21.184Z,15.45
2022-12-08T06:36:48.453Z,14.77
2022-12-08T06:39:15.858Z,14.68
2022-12-08T06:42:23.821Z,14.93
2022-12-08T06:44:51.435Z,15.90
2022-12-08T06:47:25.936Z,14.15
2022-12-08T06:49:54.132Z,14.65
2022-12-08T06:53:22.003Z,13.77
2022-12-08T06:55:59.600Z,14.30
2022-12-08T06:58:27.205Z,13.75
2022-12-08T07:00:54.465Z,12.63
2022-12-08T07:04:02.505Z,14.27
2022-12-08T07:06:29.629Z,15.48
2022-12-08T07:09:35.299Z,17.67
2022-12-08T07:12:03.183Z,17.63
2022-12-08T07:14:30.659Z,16.55
2022-12-08T07:16:57.863Z,16.15
2022-12-08T07:20:04.574Z,16.50
2022-12-08T07:22:34.111Z,16.35
2022-12-08T07:25:01.274Z,15.50
2022-12-08T07:27:28.683Z,15.95
2022-12-08T07:29:55.801Z,24.63
2022-12-08T07:32:23.196Z,15.95
2022-12-08T07:35:35.333Z,18.65
2022-12-08T07:38:03.018Z,16.77
2022-12-08T07:40:32.036Z,17.23
2022-12-08T07:42:59.459Z,17.42
2022-12-08T07:45:31.533Z,21.27
2022-12-08T07:47:59.208Z,18.42
2022-12-08T07:50:28.050Z,17.17
2022-12-08T07:53:24.698Z,18.88
2022-12-08T07:56:08.599Z,17.27
2022-12-08T07:58:37.013Z,17.42
2022-12-08T08:01:04.733Z,17.42
2022-12-08T08:03:32.538Z,19.75
2022-12-08T08:06:05.915Z,16.17
2022-12-08T08:08:33.161Z,17.70
2022-12-08T08:11:06.936Z,17.70
2022-12-08T08:13:46.244Z,16.63
2022-12-08T08:16:16.293Z,16.25
2022-12-08T08:22:25.669Z,16.67
2022-12-08T08:25:01.492Z,17.20
2022-12-08T08:27:28.872Z,15.77
2022-12-08T08:30:07.551Z,17.65
2022-12-08T08:33:10.516Z,17.08
2022-12-08T08:35:42.184Z,17.50
2022-12-08T08:38:09.434Z,14.55
2022-12-08T08:40:36.989Z,16.48
2022-12-08T08:43:06.548Z,18.15
2022-12-08T08:45:36.753Z,20.98
2022-12-08T08:48:04.388Z,19.30
2022-12-08T08:51:07.217Z,18.85
2022-12-08T08:53:43.124Z,19.42
2022-12-08T08:56:13.724Z,22.67
2022-12-08T08:58:56.222Z,20.77
2022-12-08T09:01:26.923Z,23.15
2022-12-08T09:06:50.171Z,19.35
2022-12-08T09:10:13.604Z,22.83
2022-12-08T09:12:49.243Z,22.13
2022-12-08T09:15:23.467Z,21.45
2022-12-08T09:17:52.367Z,19.10
2022-12-08T09:20:44.455Z,18.20
2022-12-08T09:23:12.014Z,18.40
2022-12-08T09:25:41.879Z,19.98
2022-12-08T09:28:13.628Z,18.25
2022-12-08T09:30:41.584Z,17.85
2022-12-08T09:33:47.723Z,17.67
2022-12-08T09:36:23.618Z,17.45
2022-12-08T09:38:53.818Z,18.73
2022-12-08T09:41:39.157Z,13.93
2022-12-08T09:44:49.386Z,13.73
2022-12-08T09:47:22.176Z,14.73
2022-12-08T09:50:16.634Z,17.70
2022-12-08T09:53:06.194Z,18.20
2022-12-08T09:55:51.647Z,20.60
2022-12-08T09:58:55.524Z,18.55
2022-12-08T10:01:27.137Z,25.05
2022-12-08T10:03:57.032Z,25.15
2022-12-08T10:07:17.698Z,26.50
2022-12-08T10:10:04.091Z,28.48
2022-12-08T10:12:36.816Z,28.38
2022-12-08T10:15:41.572Z,30.55
2022-12-08T10:19:24.250Z,20.55
2022-12-08T10:21:53.637Z,31.95
2022-12-08T10:28:10.116Z,20.88
2022-12-08T10:30:56.312Z,23.75
2022-12-08T10:33:23.927Z,28.95
2022-12-08T10:35:56.607Z,22.80
2022-12-08T10:38:29.481Z,22.25
2022-12-08T10:41:11.746Z,25.17
2022-12-08T10:43:43.134Z,25.98
2022-12-08T10:46:29.303Z,18.23
2022-12-08T10:52:27.911Z,24.63
2022-12-08T10:54:55.156Z,24.10
2022-12-08T10:57:29.851Z,24.38
2022-12-08T11:02:56.588Z,22.77
2022-12-08T11:05:35.653Z,22.77
2022-12-08T11:08:04.728Z,24.20
2022-12-08T11:10:44.229Z,22.73
2022-12-08T11:13:24.708Z,21.23
2022-12-08T11:15:53.777Z,19.30
2022-12-08T11:18:28.725Z,22.63
2022-12-08T11:21:19.220Z,21.23
2022-12-08T11:23:50.754Z,21.42
2022-12-08T11:26:29.754Z,21.05
2022-12-08T11:28:57.947Z,21.77
2022-12-08T11:31:35.523Z,20.33
2022-12-08T11:34:03.585Z,20.55
2022-12-08T11:36:34.624Z,20.20
2022-12-08T11:39:04.665Z,20.17
2022-12-08T11:41:39.008Z,20.27
2022-12-08T11:44:37.961Z,18.30
2022-12-08T11:47:20.730Z,19.40
2022-12-08T11:49:50.423Z,18.75
2022-12-08T11:52:45.355Z,18.38
2022-12-08T11:55:50.190Z,18.67
2022-12-08T11:58:25.845Z,19.17
2022-12-08T12:00:53.252Z,17.83
2022-12-08T12:03:34.029Z,19.15
2022-12-08T12:06:46.273Z,14.60
2022-12-08T12:09:19.790Z,18.45
2022-12-08T12:12:14.413Z,18.50
2022-12-08T12:15:02.731Z,20.27
2022-12-08T12:17:45.425Z,19.65
2022-12-08T12:20:49.734Z,18.35
2022-12-08T12:23:47.748Z,19.88
2022-12-08T12:26:26.643Z,20.08
2022-12-08T12:29:17.497Z,19.65
2022-12-08T12:31:51.794Z,19.75
2022-12-08T12:34:18.693Z,18.20
2022-12-08T12:37:03.496Z,20.17
2022-12-08T12:39:34.167Z,18.05
2022-12-08T12:42:03.445Z,27.00
2022-12-08T12:44:33.110Z,19.83
2022-12-08T12:47:02.773Z,18.15
2022-12-08T12:49:48.845Z,18.67
2022-12-08T12:52:15.992Z,19.50
2022-12-08T12:54:45.900Z,18.38
2022-12-08T12:57:13.015Z,18.92
2022-12-08T12:59:46.994Z,17.95
2022-12-08T13:02:20.859Z,19.13
2022-12-08T13:05:15.909Z,18.95
2022-12-08T13:07:49.868Z,18.65
2022-12-08T13:10:29.236Z,19.83
2022-12-08T13:13:06.266Z,19.35
2022-12-08T13:15:41.463Z,19.70
2022-12-08T13:18:21.296Z,18.95
2022-12-08T13:21:10.396Z,18.17
2022-12-08T13:23:37.339Z,18.73
2022-12-08T13:26:18.825Z,19.42
2022-12-08T13:29:25.263Z,15.52
2022-12-08T13:31:57.311Z,21.33
2022-12-08T13:34:36.960Z,20.20
2022-12-08T13:37:20.834Z,20.40
2022-12-08T13:40:03.662Z,20.15
2022-12-08T13:42:43.972Z,21.40
2022-12-08T13:57:10.460Z,19.83
2022-12-08T13:59:44.500Z,21.60
2022-12-08T14:02:28.114Z,20.00
2022-12-08T14:07:43.926Z,21.42
2022-12-08T14:10:22.007Z,20.67
2022-12-08T14:13:04.032Z,20.70
2022-12-08T14:15:38.333Z,20.52
2022-12-08T14:18:07.392Z,21.60
2022-12-08T14:20:57.888Z,20.80
2022-12-08T14:23:23.052Z,20.13
2022-12-08T14:25:50.070Z,19.95
2022-12-08T14:28:17.264Z,19.63
2022-12-08T14:30:44.832Z,18.65
2022-12-08T14:33:17.474Z,19.45
2022-12-08T14:35:51.038Z,21.23
2022-12-08T14:38:20.610Z,20.60
2022-12-08T14:40:59.226Z,22.92
2022-12-08T14:43:28.319Z,23.38
2022-12-08T14:46:05.256Z,22.30
2022-12-08T14:48:36.295Z,21.17
2022-12-08T14:51:09.347Z,18.90
2022-12-08T14:53:55.296Z,24.70
2022-12-08T14:56:39.062Z,22.90
2022-12-08T14:59:21.053Z,21.85
2022-12-08T15:01:51.456Z,21.10
2022-12-08T15:04:22.809Z,22.17
2022-12-08T15:07:05.408Z,21.35
2022-12-08T15:09:37.325Z,22.63
2022-12-08T15:14:37.586Z,22.58
2022-12-08T15:17:30.777Z,25.20
2022-12-08T15:19:59.322Z,25.13
2022-12-08T15:22:29.974Z,25.27
2022-12-08T15:24:57.562Z,28.48
2022-12-08T15:27:27.400Z,29.10
2022-12-08T15:29:54.587Z,27.65
2022-12-08T15:32:23.528Z,26.92
2022-12-08T15:34:50.813Z,28.65
2022-12-08T15:37:24.162Z,29.23
2022-12-08T15:39:52.048Z,25.70
2022-12-08T15:42:24.131Z,27.48
2022-12-08T15:44:51.224Z,29.73
2022-12-08T15:47:23.831Z,28.75
2022-12-08T15:49:53.134Z,28.27
2022-12-08T15:52:24.880Z,27.45
2022-12-08T15:54:51.954Z,27.77
2022-12-08T15:58:30.919Z,34.22
2022-12-08T16:00:51.667Z,29.23
2022-12-08T16:04:19.838Z,35.60
2022-12-08T16:09:19.327Z,33.25
2022-12-08T16:12:07.708Z,29.88
2022-12-08T16:17:29.070Z,42.47
2022-12-08T16:19:58.763Z,44.70
2022-12-08T16:25:19.957Z,29.88
2022-12-08T16:30:39.242Z,26.58
2022-12-08T16:33:06.566Z,29.40
2022-12-08T16:35:47.432Z,29.65
2022-12-08T16:38:16.498Z,29.77
2022-12-08T16:41:07.188Z,28.30
2022-12-08T16:43:34.661Z,34.92
2022-12-08T16:46:07.133Z,32.28
2022-12-08T16:48:34.378Z,28.42
2022-12-08T16:51:13.030Z,28.33
2022-12-08T16:53:40.135Z,27.10
2022-12-08T16:56:07.305Z,26.35
2022-12-08T16:58:36.377Z,27.00
2022-12-08T17:01:06.536Z,26.95
2022-12-08T17:03:34.856Z,29.27
2022-12-08T17:06:01.873Z,26.75
2022-12-08T17:08:36.115Z,27.65
2022-12-08T17:11:11.766Z,28.38
2022-12-08T17:13:43.159Z,28.27
2022-12-08T17:16:19.370Z,29.35
2022-12-08T17:18:47.648Z,26.70
2022-12-08T17:21:21.452Z,27.17
2022-12-08T17:23:48.570Z,28.40
2022-12-08T17:26:28.706Z,31.15
2022-12-08T17:29:00.860Z,33.22
2022-12-08T17:31:30.423Z,35.38
2022-12-08T17:34:18.030Z,33.72
2022-12-08T17:36:44.953Z,33.42
2022-12-08T17:39:18.377Z,34.15
2022-12-08T17:41:46.467Z,32.45
2022-12-08T17:44:16.699Z,32.08
2022-12-08T17:46:52.674Z,31.52
2022-12-08T17:49:33.280Z,29.40
2022-12-08T17:52:03.703Z,32.38
2022-12-08T17:54:33.764Z,32.95
2022-12-08T17:57:00.962Z,33.30
2022-12-08T17:59:31.049Z,45.53
2022-12-08T18:01:58.597Z,40.70
2022-12-08T18:04:26.880Z,44.35
2022-12-08T18:07:01.441Z,44.33
2022-12-08T18:09:31.402Z,37.63
2022-12-08T18:11:59.845Z,34.42
2022-12-08T18:14:27.095Z,36.75
2022-12-08T18:16:56.914Z,34.72
2022-12-08T18:19:27.223Z,33.75
2022-12-08T18:22:02.130Z,33.85
2022-12-08T18:24:29.853Z,33.10
2022-12-08T18:26:57.907Z,30.20
2022-12-08T18:29:31.612Z,31.13
2022-12-08T18:32:05.325Z,32.60
2022-12-08T18:34:34.484Z,30.00
2022-12-08T18:37:28.360Z,28.83
2022-12-08T18:43:01.066Z,41.00
2022-12-08T18:47:58.282Z,32.35
2022-12-08T18:53:58.720Z,31.45
2022-12-08T18:56:35.386Z,32.30
2022-12-08T19:02:52.601Z,34.60
2022-12-08T19:05:25.109Z,33.03
2022-12-08T19:07:54.251Z,38.38
2022-12-08T19:10:32.877Z,39.97
2022-12-08T19:13:00.112Z,37.90
2022-12-08T19:15:27.203Z,35.20
2022-12-08T19:17:54.195Z,36.05
2022-12-08T19:20:23.288Z,38.22
2022-12-08T19:22:50.241Z,38.28
2022-12-08T19:25:17.242Z,36.05
2022-12-08T19:27:45.794Z,47.58
2022-12-08T19:30:13.213Z,46.65
2022-12-08T19:32:40.222Z,48.13
2022-12-08T19:35:07.619Z,46.25
2022-12-08T19:37:35.331Z,41.92
2022-12-08T19:40:20.609Z,36.78
2022-12-08T19:43:08.711Z,36.95
2022-12-08T19:45:37.198Z,36.75
2022-12-08T19:48:04.790Z,38.33
2022-12-08T19:50:37.735Z,36.58
2022-12-08T19:53:06.096Z,34.53
2022-12-08T19:55:33.362Z,39.63
2022-12-08T19:58:01.863Z,41.28
2022-12-08T20:00:30.371Z,39.97
2022-12-08T20:02:57.811Z,43.50
2022-12-08T20:05:25.658Z,43.85
2022-12-08T20:07:55.658Z,45.17
2022-12-08T20:10:26.395Z,40.90
2022-12-08T20:13:13.262Z,41.83
2022-12-08T20:15:41.021Z,43.58
2022-12-08T20:18:08.118Z,44.00
2022-12-08T20:20:35.012Z,45.17
2022-12-08T20:23:02.101Z,40.25
2022-12-08T20:25:29.015Z,37.38
2022-12-08T20:27:56.242Z,38.95
2022-12-08T20:30:23.440Z,38.17
2022-12-08T20:32:50.393Z,39.17
2022-12-08T20:35:17.318Z,38.03
2022-12-08T20:37:44.287Z,37.53
2022-12-08T20:40:11.604Z,39.88
2022-12-08T20:42:38.513Z,37.83
2022-12-08T20:45:09.194Z,36.45
2022-12-08T20:47:37.573Z,36.03
2022-12-08T20:50:11.942Z,36.13
2022-12-08T20:52:39.289Z,38.28
2022-12-08T20:55:07.938Z,41.90
2022-12-08T20:57:35.012Z,48.05
2022-12-08T21:00:03.290Z,52.40
2022-12-08T21:02:30.418Z,63.13
2022-12-08T21:04:57.736Z,58.92
2022-12-08T21:07:25.000Z,55.25
2022-12-08T21:09:52.854Z,49.88
2022-12-08T21:12:21.596Z,47.63
2022-12-08T21:14:48.609Z,43.50
2022-12-08T21:17:15.934Z,40.28
2022-12-08T21:19:43.067Z,42.38
2022-12-08T21:22:10.176Z,48.88
2022-12-08T21:24:37.847Z,44.28
2022-12-08T21:31:14.956Z,43.75
2022-12-08T21:36:55.975Z,43.80
2022-12-08T21:39:24.365Z,42.83
2022-12-08T22:18:27.098Z,39.08
2022-12-08T22:34:16.428Z,39.63
2022-12-08T22:36:45.176Z,50.25
2022-12-08T22:39:13.438Z,40.80
2022-12-08T22:42:19.069Z,39.85
2022-12-08T22:44:46.418Z,39.83
2022-12-08T22:47:14.656Z,39.50
2022-12-08T22:49:47.006Z,38.85
2022-12-08T22:52:14.228Z,38.70
2022-12-08T22:54:44.200Z,39.03
2022-12-08T22:57:11.543Z,39.28
2022-12-08T22:59:42.243Z,37.05
2022-12-08T23:02:10.022Z,38.28
2022-12-08T23:04:37.460Z,37.83
2022-12-08T23:10:08.425Z,39.55
2022-12-08T23:12:36.149Z,39.88
2022-12-08T23:15:03.495Z,37.50
2022-12-08T23:17:30.744Z,37.50
2022-12-08T23:20:14.491Z,36.60
2022-12-08T23:22:44.675Z,36.40
2022-12-08T23:25:11.898Z,35.30
2022-12-08T23:27:39.524Z,36.55
2022-12-08T23:30:08.018Z,34.60
2022-12-08T23:32:35.400Z,34.15
2022-12-08T23:35:02.946Z,32.30
2022-12-08T23:37:30.135Z,33.50
2022-12-08T23:39:57.360Z,31.77
2022-12-08T23:42:24.410Z,30.85
2022-12-08T23:44:51.432Z,32.35
2022-12-08T23:47:18.567Z,31.40
2022-12-08T23:49:45.689Z,30.90
2022-12-08T23:52:14.230Z,30.52
2022-12-08T23:54:44.926Z,30.52
2022-12-08T23:57:11.983Z,32.33
2022-12-08T23:59:39.119Z,31.73
